Time;durP1;ratioP1;P1;durP2;ratioP2;P2;SDS_P1;SDS_P2;PMS_P1;PMS_P2;Temp;Humidity;BMP_temperature;BMP_pressure;BME280_temperature;BME280_humidity;BME280_pressure;Samples;Min_cycle;Max_cycle;Signal;HPM_P1;HPM_P2
2022/04/05 00:00:27;;;;;;;;;13.50;12.25;;;;;11.57;50.13;101268.59;2445949;27;47326;-92
2022/04/05 00:01:37;;;;;;;;;14.00;13.75;;;;;11.61;50.17;101267.59;2457962;27;44597;-94
2022/04/05 00:02:48;;;;;;;;;13.75;12.50;;;;;11.61;50.52;101267.59;2449961;28;47230;-89
2022/04/05 00:03:58;;;;;;;;;11.00;9.50;;;;;11.59;50.37;101267.66;2451136;28;45165;-96
2022/04/05 00:05:09;;;;;;;;;14.25;13.75;;;;;11.59;50.62;101269.41;2460647;27;47549;-91
2022/04/05 00:06:19;;;;;;;;;13.25;12.75;;;;;11.60;50.76;101268.50;2455142;27;45186;-93
2022/04/05 00:07:29;;;;;;;;;12.50;10.50;;;;;11.59;50.78;101266.78;2442229;28;47177;-92
2022/04/05 00:08:40;;;;;;;;;12.50;12.50;;;;;11.58;50.78;101268.53;2442627;28;45248;-94
2022/04/05 00:09:50;;;;;;;;;16.00;13.25;;;;;11.61;50.87;101266.72;2446352;28;45465;-93
2022/04/05 00:11:01;;;;;;;;;16.25;14.50;;;;;11.61;50.76;101269.34;2451914;27;45365;-91
2022/04/05 00:12:11;;;;;;;;;12.50;11.50;;;;;11.61;51.15;101272.84;2442392;28;48213;-90
2022/04/05 00:13:22;;;;;;;;;14.00;12.50;;;;;11.59;50.83;101266.78;2449681;27;44770;-89
2022/04/05 00:14:32;;;;;;;;;15.00;13.00;;;;;11.59;50.96;101270.28;2451695;28;46301;-89
2022/04/05 00:15:42;;;;;;;;;13.50;11.25;;;;;11.61;51.04;101270.22;2452585;27;45248;-90
2022/04/05 00:16:53;;;;;;;;;13.50;13.50;;;;;11.62;51.14;101271.97;2446555;27;45271;-91
2022/04/05 00:18:03;;;;;;;;;16.75;15.75;;;;;11.61;51.22;101270.22;2442864;28;45420;-90
2022/04/05 00:19:14;;;;;;;;;15.50;12.75;;;;;11.62;51.05;101266.69;2441806;28;47526;-90
2022/04/05 00:20:27;;;;;;;;;13.50;13.50;;;;;11.63;51.19;101272.84;2435223;28;45376;-93
2022/04/05 00:21:37;;;;;;;;;16.50;15.50;;;;;11.63;51.19;101262.31;2448810;27;48206;-90
2022/04/05 00:22:47;;;;;;;;;16.75;12.50;;;;;11.62;51.28;101266.69;2452280;28;45215;-93
2022/04/05 00:23:58;;;;;;;;;15.75;12.00;;;;;11.62;51.15;101269.34;2455124;28;45337;-94
2022/04/05 00:25:08;;;;;;;;;13.25;13.25;;;;;11.62;51.41;101269.34;2444709;27;44662;-95
2022/04/05 00:26:19;;;;;;;;;13.00;13.00;;;;;11.62;51.65;101263.19;2447985;28;47464;-96
2022/04/05 00:27:29;;;;;;;;;15.25;13.75;;;;;11.59;51.54;101262.38;2446102;27;45248;-94
2022/04/05 00:28:39;;;;;;;;;18.25;15.00;;;;;11.59;51.60;101266.78;2453123;28;45268;-90
2022/04/05 00:29:50;;;;;;;;;14.00;13.75;;;;;11.57;51.87;101260.69;2444447;27;45229;-92
2022/04/05 00:31:00;;;;;;;;;16.25;12.50;;;;;11.57;51.90;101266.84;2447597;28;48160;-92
2022/04/05 00:32:11;;;;;;;;;13.50;13.00;;;;;11.56;51.82;101258.97;2449426;27;45449;-92
2022/04/05 00:33:21;;;;;;;;;16.25;15.25;;;;;11.57;52.06;101258.06;2451696;28;47337;-91
2022/04/05 00:34:32;;;;;;;;;12.25;12.25;;;;;11.57;51.93;101268.59;2451283;28;45339;-91
2022/04/05 00:35:42;;;;;;;;;14.00;13.50;;;;;11.61;52.15;101267.59;2444485;28;47672;-92
2022/04/05 00:36:53;;;;;;;;;16.00;14.50;;;;;11.59;51.89;101265.00;2441648;28;45557;-92
2022/04/05 00:38:03;;;;;;;;;18.50;13.50;;;;;11.59;51.52;101272.03;2444306;28;45416;-92
2022/04/05 00:39:14;;;;;;;;;12.25;11.75;;;;;11.60;52.16;101268.50;2452950;27;45364;-92
2022/04/05 00:40:25;;;;;;;;;14.00;14.00;;;;;11.60;52.17;101268.50;2450544;28;47803;-92
2022/04/05 00:41:36;;;;;;;;;13.25;12.75;;;;;11.62;52.13;101277.22;2435347;28;45327;-93
2022/04/05 00:42:46;;;;;;;;;13.75;12.75;;;;;11.59;52.31;101269.41;2434916;28;47150;-92
2022/04/05 00:43:56;;;;;;;;;13.75;13.50;;;;;11.61;52.25;101269.34;2444639;28;45254;-91
2022/04/05 00:45:09;;;;;;;;;15.50;14.25;;;;;11.63;52.38;101270.19;2451822;28;46105;-92
2022/04/05 00:46:19;;;;;;;;;13.00;10.50;;;;;11.62;52.66;101271.09;2452127;28;44730;-91
2022/04/05 00:47:30;;;;;;;;;14.50;12.50;;;;;11.61;52.46;101269.34;2448771;28;47297;-92
2022/04/05 00:48:48;;;;;;;;;13.50;12.50;;;;;11.60;52.45;101265.88;2446448;27;45484;-93
2022/04/05 00:49:59;;;;;;;;;12.25;12.25;;;;;11.60;52.69;101263.25;2451596;28;48267;-91
2022/04/05 00:51:09;;;;;;;;;15.75;14.00;;;;;11.62;52.46;101263.19;2435930;28;45289;-93
2022/04/05 00:52:22;;;;;;;;;12.75;11.25;;;;;11.63;52.47;101263.13;2439947;28;47066;-89
2022/04/05 00:53:34;;;;;;;;;14.75;14.25;;;;;11.63;52.74;101271.03;2451974;28;45309;-90
2022/04/05 00:54:47;;;;;;;;;13.50;12.50;;;;;11.63;52.63;101259.66;2451603;28;47083;-90
2022/04/05 00:56:00;;;;;;;;;14.75;14.25;;;;;11.65;52.81;101263.97;2451925;28;45250;-92
2022/04/05 00:57:13;;;;;;;;;15.50;15.50;;;;;11.64;52.63;101270.16;2446750;28;47629;-92
2022/04/05 00:58:26;;;;;;;;;12.50;12.25;;;;;11.63;52.81;101260.50;2451436;28;44791;-89
2022/04/05 00:59:41;;;;;;;;;12.00;11.25;;;;;11.64;52.73;101256.97;2451705;27;45452;-90
2022/04/05 01:00:52;;;;;;;;;13.25;11.00;;;;;11.65;52.89;101266.63;2443774;28;45448;-89
2022/04/05 01:02:02;;;;;;;;;14.25;14.25;;;;;11.63;52.58;101265.78;2446415;28;47099;-89
2022/04/05 01:03:15;;;;;;;;;15.75;13.00;;;;;11.65;52.66;101269.25;2454572;27;45278;-92
2022/04/05 01:04:28;;;;;;;;;11.25;11.25;;;;;11.66;52.94;101264.81;2448691;28;47766;-92
2022/04/05 01:05:39;;;;;;;;;14.75;14.25;;;;;11.65;52.90;101266.63;2452987;27;45271;-93
2022/04/05 01:06:51;;;;;;;;;14.50;13.75;;;;;11.63;52.91;101262.31;2457947;27;46310;-92
2022/04/05 01:08:04;;;;;;;;;15.50;14.50;;;;;11.63;53.08;101252.59;2449814;28;45374;-92
2022/04/05 01:09:14;;;;;;;;;15.25;14.50;;;;;11.63;53.09;101252.59;2442905;28;45662;-91
2022/04/05 01:10:27;;;;;;;;;12.75;12.75;;;;;11.62;53.06;101256.16;2444095;28;45318;-91
2022/04/05 01:11:38;;;;;;;;;14.00;13.00;;;;;11.63;53.18;101263.13;2446648;28;47205;-92
2022/04/05 01:12:49;;;;;;;;;14.00;12.25;;;;;11.63;53.40;101251.78;2435724;28;45267;-91
2022/04/05 01:14:00;;;;;;;;;14.75;13.75;;;;;11.62;53.55;101256.16;2451169;28;47552;-92
2022/04/05 01:15:11;;;;;;;;;12.25;12.00;;;;;11.64;53.48;101251.72;2444578;28;45177;-91
2022/04/05 01:16:22;;;;;;;;;14.50;12.50;;;;;11.65;53.54;101261.34;2446291;27;45496;-91
2022/04/05 01:17:34;;;;;;;;;11.25;11.25;;;;;11.67;53.51;101256.03;2441113;28;45361;-89
2022/04/05 01:18:44;;;;;;;;;10.75;10.75;;;;;11.67;53.64;101254.25;2441828;28;45544;-90
2022/04/05 01:19:55;;;;;;;;;14.25;13.50;;;;;11.64;53.51;101253.47;2448843;28;45440;-90
2022/04/05 01:21:06;;;;;;;;;13.25;12.25;;;;;11.65;53.54;101261.34;2451061;28;47035;-91
2022/04/05 01:22:16;;;;;;;;;12.75;12.75;;;;;11.65;53.55;101250.81;2449701;28;45235;-91
2022/04/05 01:23:26;;;;;;;;;15.00;13.00;;;;;11.63;54.10;101244.72;2452171;27;46452;-91
2022/04/05 01:24:37;;;;;;;;;13.00;11.50;;;;;11.66;53.79;101252.53;2451410;28;45228;-91
2022/04/05 01:25:47;;;;;;;;;14.25;12.25;;;;;11.67;54.10;101249.00;2449122;28;46289;-93
2022/04/05 01:26:59;;;;;;;;;13.50;13.50;;;;;11.66;53.84;101252.53;2452533;27;45319;-93
2022/04/05 01:28:09;;;;;;;;;13.50;12.50;;;;;11.64;53.83;101248.22;2451280;27;47453;-94
2022/04/05 01:29:22;;;;;;;;;13.50;12.25;;;;;11.64;53.99;101241.19;2449156;28;44608;-94
2022/04/05 01:30:32;;;;;;;;;13.75;13.00;;;;;11.65;54.24;101244.69;2444137;28;47100;-93
2022/04/05 01:31:55;;;;;;;;;15.25;12.50;;;;;11.65;54.19;101245.56;2444520;28;45268;-91
2022/04/05 01:33:07;;;;;;;;;14.50;13.50;;;;;11.64;53.81;101233.28;2451741;28;45453;-88
2022/04/05 01:34:20;;;;;;;;;15.25;14.25;;;;;11.64;54.20;101243.81;2452030;27;45310;-88
2022/04/05 01:35:30;;;;;;;;;14.00;14.00;;;;;11.63;54.31;101242.06;2451053;28;46197;-87
2022/04/05 01:36:43;;;;;;;;;14.25;12.25;;;;;11.64;54.49;101242.94;2448455;28;45446;-88
2022/04/05 01:37:54;;;;;;;;;13.75;12.25;;;;;11.63;54.45;101241.25;2449115;27;46224;-88
2022/04/05 01:39:06;;;;;;;;;13.00;13.00;;;;;11.62;54.46;101245.63;2442317;28;45247;-89
2022/04/05 01:40:16;;;;;;;;;12.75;12.25;;;;;11.62;54.47;101245.63;2442209;28;46125;-89
2022/04/05 01:41:27;;;;;;;;;18.50;13.00;;;;;11.59;54.75;101238.69;2442316;28;44788;-89
2022/04/05 01:42:37;;;;;;;;;15.50;15.25;;;;;11.57;54.50;101234.38;2442057;28;45349;-88
2022/04/05 01:43:48;;;;;;;;;15.75;13.00;;;;;11.56;54.71;101235.25;2442225;28;45230;-90
2022/04/05 01:44:58;;;;;;;;;13.50;13.50;;;;;11.55;54.68;101241.47;2442013;28;45333;-88
2022/04/05 01:46:08;;;;;;;;;12.00;11.75;;;;;11.55;54.35;101238.81;2443837;28;45433;-87
2022/04/05 01:47:19;;;;;;;;;16.75;14.75;;;;;11.57;54.71;101239.63;2442087;28;45279;-87
2022/04/05 01:48:29;;;;;;;;;15.25;13.25;;;;;11.52;55.13;101229.25;2442015;28;45173;-87
2022/04/05 01:49:41;;;;;;;;;12.00;12.00;;;;;11.54;55.04;101232.69;2442102;28;46467;-88
2022/04/05 01:50:52;;;;;;;;;17.25;13.75;;;;;11.55;55.16;101230.94;2442004;28;45232;-91
2022/04/05 01:52:02;;;;;;;;;14.75;14.00;;;;;11.54;55.14;101230.06;2441110;28;46878;-91
2022/04/05 01:53:14;;;;;;;;;13.50;13.00;;;;;11.55;55.06;101228.28;2441838;28;44784;-91
2022/04/05 01:54:24;;;;;;;;;8.00;7.00;;;;;11.55;54.97;101229.16;2443188;28;46568;-92
2022/04/05 01:55:35;;;;;;;;;13.25;12.50;;;;;11.58;55.19;101233.47;2441617;28;45229;-94
2022/04/05 01:56:47;;;;;;;;;12.00;12.00;;;;;11.57;55.17;101237.88;2444385;28;46859;-94
2022/04/05 01:58:00;;;;;;;;;14.00;13.00;;;;;11.56;55.28;101232.63;2447047;28;45279;-95
2022/04/05 01:59:12;;;;;;;;;17.75;13.00;;;;;11.57;55.56;101229.97;2449492;28;47201;-95
2022/04/05 02:00:22;;;;;;;;;12.25;12.25;;;;;11.56;55.28;101233.50;2444621;28;44669;-87
2022/04/05 02:01:33;;;;;;;;;14.00;12.75;;;;;11.57;55.55;101231.75;2448436;27;45590;-87
2022/04/05 02:02:44;;;;;;;;;15.75;14.00;;;;;11.58;55.15;101228.22;2441318;28;44673;-89
2022/04/05 02:03:54;;;;;;;;;13.25;12.00;;;;;11.57;55.36;101221.22;2441983;28;45459;-89
2022/04/05 02:05:05;;;;;;;;;15.25;12.00;;;;;11.58;55.23;101222.94;2451876;27;45289;-89
2022/04/05 02:06:15;;;;;;;;;14.00;12.00;;;;;11.57;55.35;101222.06;2444213;28;46273;-89
2022/04/05 02:07:26;;;;;;;;;12.50;11.75;;;;;11.58;55.42;101217.69;2441373;28;44665;-89
2022/04/05 02:08:36;;;;;;;;;12.50;12.50;;;;;11.58;55.26;101217.69;2443599;28;47113;-89
2022/04/05 02:09:49;;;;;;;;;11.75;10.50;;;;;11.60;55.52;101218.50;2442600;28;45489;-88
2022/04/05 02:11:00;;;;;;;;;14.50;14.50;;;;;11.61;55.40;101221.97;2451620;27;45322;-89
2022/04/05 02:12:11;;;;;;;;;15.00;13.00;;;;;11.61;55.69;101219.31;2444396;27;45470;-89
2022/04/05 02:13:21;;;;;;;;;11.75;11.75;;;;;11.60;55.57;101221.13;2442425;28;48028;-88
2022/04/05 02:14:32;;;;;;;;;12.00;12.00;;;;;11.59;55.55;101219.38;2449615;27;45445;-90
2022/04/05 02:15:42;;;;;;;;;13.50;12.00;;;;;11.60;55.52;101218.50;2448976;27;46306;-89
2022/04/05 02:16:52;;;;;;;;;17.00;13.50;;;;;11.61;55.38;101220.19;2454545;27;45460;-89
2022/04/05 02:18:03;;;;;;;;;14.00;10.75;;;;;11.58;55.55;101221.16;2443282;28;47991;-88
2022/04/05 02:19:13;;;;;;;;;18.25;14.50;;;;;11.61;55.49;101214.94;2451145;28;44715;-89
2022/04/05 02:20:24;;;;;;;;;14.25;13.00;;;;;11.61;55.29;101216.69;2443166;27;46715;-89
2022/04/05 02:21:34;;;;;;;;;15.50;13.25;;;;;11.61;55.63;101217.56;2445315;28;45412;-89
2022/04/05 02:22:44;;;;;;;;;14.50;12.00;;;;;11.61;55.79;101217.56;2451045;28;46589;-89
2022/04/05 02:23:55;;;;;;;;;14.25;11.75;;;;;11.62;55.78;101218.44;2459643;27;45188;-89
2022/04/05 02:25:06;;;;;;;;;15.75;13.00;;;;;11.63;55.59;101214.91;2448273;28;46283;-90
2022/04/05 02:26:16;;;;;;;;;16.00;13.50;;;;;11.62;55.75;101215.81;2445204;28;44694;-90
2022/04/05 02:27:27;;;;;;;;;15.25;12.25;;;;;11.62;55.51;101216.66;2450785;28;47275;-89
2022/04/05 02:28:37;;;;;;;;;13.25;12.25;;;;;11.64;55.66;101220.13;2450978;28;45268;-88
2022/04/05 02:29:47;;;;;;;;;12.50;11.50;;;;;11.64;55.40;101221.88;2448532;28;48235;-88
2022/04/05 02:30:59;;;;;;;;;14.00;13.50;;;;;11.62;55.81;101214.03;2450873;28;44842;-88
2022/04/05 02:32:09;;;;;;;;;15.50;14.00;;;;;11.62;55.67;101214.03;2450604;28;47356;-88
2022/04/05 02:33:20;;;;;;;;;14.50;12.75;;;;;11.64;55.92;101213.97;2448173;28;45493;-87
2022/04/05 02:34:30;;;;;;;;;12.50;9.50;;;;;11.63;55.86;101226.28;2441702;28;46432;-92
2022/04/05 02:35:43;;;;;;;;;15.00;13.25;;;;;11.63;55.97;101218.38;2441940;28;45490;-92
2022/04/05 02:36:53;;;;;;;;;17.00;13.25;;;;;11.60;56.02;101221.13;2440766;28;46128;-91
2022/04/05 02:38:04;;;;;;;;;14.75;14.00;;;;;11.62;56.17;101213.16;2441649;28;45361;-95
2022/04/05 02:39:15;;;;;;;;;14.50;11.25;;;;;11.62;56.37;101214.03;2448171;28;47254;-94
2022/04/05 02:40:25;;;;;;;;;13.25;12.75;;;;;11.59;55.92;101214.13;2451861;27;45170;-92
2022/04/05 02:41:36;;;;;;;;;14.75;12.25;;;;;11.58;55.95;101213.25;2441098;28;47015;-91
2022/04/05 02:42:46;;;;;;;;;13.00;11.75;;;;;11.57;55.98;101208.03;2441403;28;45243;-92
2022/04/05 02:43:58;;;;;;;;;16.00;13.75;;;;;11.58;56.17;101215.03;2451275;27;47131;-92
2022/04/05 02:45:09;;;;;;;;;14.25;13.00;;;;;11.57;55.93;101218.56;2448222;28;45193;-91
2022/04/05 02:46:20;;;;;;;;;14.00;12.25;;;;;11.56;56.19;101206.31;2441060;28;46630;-91
2022/04/05 02:47:30;;;;;;;;;13.50;12.00;;;;;11.56;56.36;101207.16;2444803;28;45222;-90
2022/04/05 02:48:43;;;;;;;;;15.25;13.00;;;;;11.56;56.09;101201.03;2450879;28;46411;-89
2022/04/05 02:49:53;;;;;;;;;14.00;12.50;;;;;11.56;56.38;101207.16;2441705;28;45370;-89
2022/04/05 02:51:04;;;;;;;;;14.50;13.50;;;;;11.58;56.28;101207.16;2445258;28;46200;-91
2022/04/05 02:52:15;;;;;;;;;15.25;13.75;;;;;11.58;56.67;101207.16;2460834;27;45333;-92
2022/04/05 02:53:26;;;;;;;;;14.50;12.75;;;;;11.59;56.36;101204.47;2451131;27;47215;-92
2022/04/05 02:54:36;;;;;;;;;13.50;13.50;;;;;11.61;56.24;101206.16;2446975;28;44934;-91
2022/04/05 02:55:46;;;;;;;;;13.25;12.50;;;;;11.61;56.41;101206.16;2441073;28;45088;-92
2022/04/05 02:56:57;;;;;;;;;12.00;11.00;;;;;11.63;56.46;101204.38;2443492;28;45239;-94
2022/04/05 02:58:08;;;;;;;;;12.75;12.75;;;;;11.62;56.51;101200.88;2451483;27;45533;-94
2022/04/05 02:59:18;;;;;;;;;16.00;13.75;;;;;11.64;56.62;101201.69;2451057;28;45258;-94
2022/04/05 03:00:29;;;;;;;;;15.25;14.75;;;;;11.64;56.45;101206.94;2443620;28;47009;-92
2022/04/05 03:01:39;;;;;;;;;12.75;12.50;;;;;11.64;56.37;101196.41;2440693;28;44676;-91
2022/04/05 03:02:50;;;;;;;;;11.50;11.50;;;;;11.63;56.55;101188.59;2450920;28;46377;-91
2022/04/05 03:04:00;;;;;;;;;12.50;12.50;;;;;11.64;56.74;101191.16;2444399;28;45140;-91
2022/04/05 03:05:13;;;;;;;;;11.75;11.25;;;;;11.67;56.71;101196.34;2443392;28;47279;-90
2022/04/05 03:06:23;;;;;;;;;13.75;12.50;;;;;11.67;56.79;101196.34;2453695;27;45242;-90
2022/04/05 03:07:35;;;;;;;;;13.50;13.50;;;;;11.67;56.54;101196.34;2457831;27;46513;-91
2022/04/05 03:08:46;;;;;;;;;13.75;12.75;;;;;11.67;56.79;101198.09;2450284;28;45445;-86
2022/04/05 03:09:56;;;;;;;;;16.50;15.00;;;;;11.68;56.75;101203.31;2443098;28;48286;-87
2022/04/05 03:11:07;;;;;;;;;15.25;12.50;;;;;11.67;56.90;101198.09;2448184;28;45489;-87
2022/04/05 03:12:18;;;;;;;;;11.00;11.00;;;;;11.68;56.91;101198.03;2441459;28;45247;-87
2022/04/05 03:13:29;;;;;;;;;14.00;13.00;;;;;11.68;56.73;101199.84;2447536;28;45358;-91
2022/04/05 03:14:39;;;;;;;;;13.75;13.50;;;;;11.69;57.03;101199.78;2450466;28;48204;-91
2022/04/05 03:15:50;;;;;;;;;14.50;14.25;;;;;11.69;56.74;101197.16;2443002;28;44629;-90
2022/04/05 03:17:00;;;;;;;;;13.50;12.00;;;;;11.69;56.96;101189.25;2441105;28;46618;-91
2022/04/05 03:18:11;;;;;;;;;16.75;13.25;;;;;11.69;56.93;101189.25;2451028;28;44675;-95
2022/04/05 03:19:21;;;;;;;;;13.50;12.50;;;;;11.67;56.96;101187.56;2446862;28;48080;-93
2022/04/05 03:20:32;;;;;;;;;13.50;12.75;;;;;11.66;57.08;101184.06;2448221;28;44664;-93
2022/04/05 03:21:42;;;;;;;;;16.00;13.75;;;;;11.69;57.06;101191.88;2450514;28;47433;-94
2022/04/05 03:22:55;;;;;;;;;16.00;12.50;;;;;11.68;57.06;101184.88;2434728;28;45328;-91
2022/04/05 03:24:06;;;;;;;;;16.25;12.75;;;;;11.66;57.23;101176.16;2434048;28;47160;-91
2022/04/05 03:25:16;;;;;;;;;13.25;12.50;;;;;11.67;57.16;101182.31;2441092;28;44656;-90
2022/04/05 03:26:26;;;;;;;;;16.75;14.50;;;;;11.69;57.06;101183.09;2450374;28;47006;-89
2022/04/05 03:27:39;;;;;;;;;15.00;13.75;;;;;11.67;57.25;101175.28;2450738;28;45312;-91
2022/04/05 03:28:49;;;;;;;;;12.75;12.75;;;;;11.67;57.25;101177.91;2447749;28;47064;-91
2022/04/05 03:29:59;;;;;;;;;11.00;11.00;;;;;11.68;57.16;101179.59;2440913;28;45257;-91
2022/04/05 03:31:10;;;;;;;;;13.25;13.25;;;;;11.68;57.05;101184.03;2446426;28;46156;-88
2022/04/05 03:32:20;;;;;;;;;12.75;11.50;;;;;11.68;57.42;101189.31;2448015;28;45164;-88
2022/04/05 03:33:30;;;;;;;;;13.75;13.00;;;;;11.67;57.61;101180.53;2440436;28;46939;-88
2022/04/05 03:34:41;;;;;;;;;12.50;11.75;;;;;11.68;57.53;101190.13;2440815;28;45324;-93
2022/04/05 03:35:54;;;;;;;;;16.25;12.00;;;;;11.68;57.76;101190.13;2440610;28;47061;-93
2022/04/05 03:37:05;;;;;;;;;15.50;12.75;;;;;11.67;57.54;101179.66;2440097;28;45329;-92
2022/04/05 03:38:16;;;;;;;;;13.75;12.25;;;;;11.68;57.58;101182.25;2441201;28;46465;-95
2022/04/05 03:39:26;;;;;;;;;12.00;11.25;;;;;11.69;57.93;101183.97;2442994;28;44713;-93
2022/04/05 03:40:37;;;;;;;;;15.75;12.75;;;;;11.68;57.65;101181.41;2442022;28;48415;-90
2022/04/05 03:41:47;;;;;;;;;13.00;12.50;;;;;11.65;57.92;101177.09;2440800;28;44774;-90
2022/04/05 03:42:58;;;;;;;;;13.75;13.50;;;;;11.65;57.95;101170.97;2441170;28;45323;-89
2022/04/05 03:44:08;;;;;;;;;16.75;14.75;;;;;11.65;57.96;101168.31;2441304;28;45210;-89
2022/04/05 03:45:19;;;;;;;;;14.00;12.50;;;;;11.65;57.91;101174.47;2441353;28;46525;-89
2022/04/05 03:46:29;;;;;;;;;16.75;13.50;;;;;11.64;58.14;101166.59;2441393;28;44581;-90
2022/04/05 03:47:39;;;;;;;;;12.00;12.00;;;;;11.63;58.19;101168.34;2441335;28;45318;-91
2022/04/05 03:48:50;;;;;;;;;15.25;13.50;;;;;11.65;58.31;101169.19;2441754;28;45204;-95
2022/04/05 03:50:00;;;;;;;;;14.50;13.75;;;;;11.66;58.31;101172.66;2450218;28;47127;-94
2022/04/05 03:51:11;;;;;;;;;14.00;14.00;;;;;11.63;58.28;101165.72;2443064;28;45584;-92
2022/04/05 03:52:21;;;;;;;;;13.25;13.25;;;;;11.64;58.44;101159.56;2444291;28;47299;-93
2022/04/05 03:53:32;;;;;;;;;13.00;12.50;;;;;11.62;58.68;101166.66;2445752;28;44680;-91
2022/04/05 03:54:42;;;;;;;;;13.50;13.50;;;;;11.60;58.82;101157.94;2442004;28;46882;-91
2022/04/05 03:55:52;;;;;;;;;13.75;13.25;;;;;11.62;58.92;101158.75;2440501;28;44614;-91
2022/04/05 03:57:03;;;;;;;;;17.00;14.50;;;;;11.60;59.04;101157.94;2433473;28;47222;-91
2022/04/05 03:58:14;;;;;;;;;14.25;14.00;;;;;11.61;58.92;101166.66;2440724;28;45327;-91
2022/04/05 03:59:24;;;;;;;;;13.00;11.75;;;;;11.57;59.18;101158.88;2448664;28;46129;-92
2022/04/05 04:00:34;;;;;;;;;15.25;13.50;;;;;11.56;59.01;101151.88;2447534;27;44669;-91
2022/04/05 04:01:45;;;;;;;;;13.75;11.75;;;;;11.56;59.21;101159.78;2441849;28;45432;-91
2022/04/05 04:02:55;;;;;;;;;12.50;10.25;;;;;11.56;59.42;101159.78;2450451;28;45420;-94
2022/04/05 04:04:05;;;;;;;;;14.50;13.50;;;;;11.55;59.11;101160.72;2441459;28;47122;-91
2022/04/05 04:05:20;;;;;;;;;15.00;13.75;;;;;11.52;59.11;101159.94;2447783;28;45401;-95
2022/04/05 04:06:30;;;;;;;;;12.00;12.00;;;;;11.52;59.23;101167.81;2440425;28;48089;-95
2022/04/05 04:07:42;;;;;;;;;13.25;13.25;;;;;11.50;59.36;101164.38;2443523;28;44680;-94
2022/04/05 04:08:53;;;;;;;;;12.75;12.75;;;;;11.48;59.31;101162.66;2444550;28;45692;-96
2022/04/05 04:10:03;;;;;;;;;16.00;14.50;;;;;11.46;59.84;101161.84;2440689;28;45406;-92
2022/04/05 04:11:14;;;;;;;;;14.00;14.00;;;;;11.47;59.92;101160.94;2439357;28;46946;-94
2022/04/05 04:12:24;;;;;;;;;14.75;14.50;;;;;11.44;59.68;101157.53;2452072;27;45381;-96
2022/04/05 04:13:35;;;;;;;;;17.50;14.75;;;;;11.43;59.67;101150.56;2448592;28;47808;-89
2022/04/05 04:14:45;;;;;;;;;15.00;14.25;;;;;11.43;59.92;101168.97;2434574;28;44728;-90
2022/04/05 04:15:58;;;;;;;;;13.75;13.75;;;;;11.41;59.72;101163.75;2442821;28;46901;-91
2022/04/05 04:17:08;;;;;;;;;15.00;14.25;;;;;11.38;60.15;101163.84;2446406;28;44800;-90
2022/04/05 04:18:19;;;;;;;;;14.00;12.00;;;;;11.36;60.25;101157.75;2450869;27;45345;-89
2022/04/05 04:19:29;;;;;;;;;16.50;13.75;;;;;11.36;60.23;101161.25;2441259;28;45212;-91
2022/04/05 04:20:42;;;;;;;;;16.75;14.75;;;;;11.34;60.13;101157.81;2441097;28;45310;-91
2022/04/05 04:21:52;;;;;;;;;15.00;14.25;;;;;11.35;60.44;101156.03;2442415;28;44760;-91
2022/04/05 04:23:02;;;;;;;;;17.75;14.50;;;;;11.34;60.34;101160.44;2450506;28;46499;-91
2022/04/05 04:24:13;;;;;;;;;14.50;14.50;;;;;11.33;60.51;101161.31;2442641;27;44716;-91
2022/04/05 04:25:24;;;;;;;;;16.75;15.50;;;;;11.34;60.55;101163.06;2440417;28;46128;-96
2022/04/05 04:26:34;;;;;;;;;13.50;13.50;;;;;11.34;60.47;101162.19;2445346;28;45279;-90
2022/04/05 04:27:44;;;;;;;;;13.00;13.00;;;;;11.34;60.78;101159.56;2440456;28;45414;-90
2022/04/05 04:28:57;;;;;;;;;14.25;14.25;;;;;11.33;60.57;101160.50;2442597;28;44780;-90
2022/04/05 04:30:08;;;;;;;;;15.25;13.50;;;;;11.31;60.58;101163.16;2452045;27;47934;-90
2022/04/05 04:31:19;;;;;;;;;13.50;13.50;;;;;11.32;60.85;101158.75;2449909;27;44900;-88
2022/04/05 04:32:29;;;;;;;;;13.75;13.00;;;;;11.31;60.73;101162.31;2450340;27;46337;-90
2022/04/05 04:33:40;;;;;;;;;16.75;14.00;;;;;11.30;60.67;101160.56;2445776;27;45148;-90
2022/04/05 04:34:50;;;;;;;;;12.00;12.00;;;;;11.30;60.92;101155.31;2449919;28;47295;-89
2022/04/05 04:36:01;;;;;;;;;15.00;14.75;;;;;11.30;60.96;101152.69;2435890;28;45283;-89
2022/04/05 04:37:12;;;;;;;;;16.00;12.75;;;;;11.29;60.98;101154.44;2443525;28;45480;-92
2022/04/05 04:38:23;;;;;;;;;15.25;15.25;;;;;11.29;61.03;101154.44;2450386;28;45224;-92
2022/04/05 04:39:34;;;;;;;;;14.75;14.75;;;;;11.25;60.91;101158.94;2442977;28;47092;-93
2022/04/05 04:40:50;;;;;;;;;16.25;15.50;;;;;11.30;61.08;101156.19;2443158;28;45239;-93
2022/04/05 04:42:01;;;;;;;;;13.75;13.75;;;;;11.28;61.61;101157.13;2441030;28;48424;-90
2022/04/05 04:43:13;;;;;;;;;18.50;14.50;;;;;11.27;60.89;101156.25;2440769;28;45448;-87
2022/04/05 04:44:25;;;;;;;;;14.00;14.00;;;;;11.27;61.24;101156.25;2440768;28;45452;-87
2022/04/05 04:45:36;;;;;;;;;14.75;14.75;;;;;11.25;60.82;101153.69;2440920;28;44772;-87
2022/04/05 04:46:46;;;;;;;;;14.50;12.75;;;;;11.26;61.26;101157.16;2439952;28;46905;-88
2022/04/05 04:47:57;;;;;;;;;14.00;14.00;;;;;11.24;61.64;101154.56;2440439;28;44646;-87
2022/04/05 04:49:08;;;;;;;;;16.00;14.75;;;;;11.27;61.30;101161.53;2440054;28;47982;-91
2022/04/05 04:50:18;;;;;;;;;16.75;16.00;;;;;11.27;61.13;101158.03;2440048;28;45271;-91
2022/04/05 04:51:28;;;;;;;;;12.50;12.50;;;;;11.24;61.80;101151.06;2443122;27;47365;-94
2022/04/05 04:52:39;;;;;;;;;13.50;13.50;;;;;11.25;61.56;101156.31;2441321;28;45184;-94
2022/04/05 04:53:49;;;;;;;;;17.50;14.25;;;;;11.23;61.50;101159.91;2448073;28;48200;-93
2022/04/05 04:55:00;;;;;;;;;15.00;14.75;;;;;11.20;61.81;101149.44;2442729;28;44659;-92
2022/04/05 04:56:10;;;;;;;;;17.25;16.00;;;;;11.19;61.84;101143.31;2444802;28;48018;-90
2022/04/05 04:57:23;;;;;;;;;14.00;14.00;;;;;11.20;62.01;101144.19;2441846;28;44745;-93
2022/04/05 04:58:34;;;;;;;;;16.25;15.25;;;;;11.19;61.64;101145.94;2435203;28;47600;-93
2022/04/05 04:59:44;;;;;;;;;14.00;14.00;;;;;11.18;61.77;101151.28;2435652;28;44682;-90
2022/04/05 05:00:55;;;;;;;;;17.00;17.00;;;;;11.15;62.09;101162.75;2447016;28;45255;-91
2022/04/05 05:02:05;;;;;;;;;15.00;14.25;;;;;11.16;62.16;101153.94;2444728;28;45519;-93
2022/04/05 05:03:18;;;;;;;;;15.50;14.25;;;;;11.14;62.08;101155.75;2442424;28;47093;-96
2022/04/05 05:04:29;;;;;;;;;15.00;15.00;;;;;11.17;62.29;101149.53;2445987;28;45230;-96
2022/04/05 05:05:39;;;;;;;;;13.75;12.00;;;;;11.11;62.23;101146.16;2455197;27;47442;-86
2022/04/05 05:06:51;;;;;;;;;17.75;17.25;;;;;11.13;62.50;101149.66;2450576;27;44802;-86
2022/04/05 05:08:01;;;;;;;;;15.50;15.50;;;;;11.14;62.27;101145.22;2442185;28;45550;-88
2022/04/05 05:09:12;;;;;;;;;18.25;14.75;;;;;11.15;62.71;101144.31;2446489;28;45488;-89
2022/04/05 05:10:25;;;;;;;;;15.25;13.50;;;;;11.17;62.45;101149.53;2443038;28;47399;-90
2022/04/05 05:11:35;;;;;;;;;15.75;14.75;;;;;11.17;62.61;101145.13;2451821;28;45349;-91
2022/04/05 05:12:46;;;;;;;;;17.25;14.50;;;;;11.19;62.78;101145.94;2452113;27;45321;-90
2022/04/05 05:13:56;;;;;;;;;17.25;15.00;;;;;11.21;63.13;101152.03;2451445;28;45274;-91
2022/04/05 05:15:13;;;;;;;;;15.75;15.25;;;;;11.19;62.72;101153.84;2442406;28;45278;-90
2022/04/05 05:16:24;;;;;;;;;15.00;15.00;;;;;11.19;62.70;101145.94;2454939;27;44779;-90
2022/04/05 05:17:35;;;;;;;;;14.00;14.00;;;;;11.21;62.43;101154.66;2456514;27;45384;-91
2022/04/05 05:18:45;;;;;;;;;17.25;15.00;;;;;11.22;62.95;101153.75;2444031;28;45307;-88
2022/04/05 05:19:56;;;;;;;;;19.25;17.50;;;;;11.21;62.76;101151.19;2442883;27;47317;-88
2022/04/05 05:21:06;;;;;;;;;13.50;13.50;;;;;11.20;62.79;101147.69;2453180;27;45195;-87
2022/04/05 05:22:16;;;;;;;;;16.75;14.75;;;;;11.22;62.75;101152.91;2447738;27;45188;-87